Time;durP1;ratioP1;P1;durP2;ratioP2;P2;SDS_P1;SDS_P2;PMS_P1;PMS_P2;Temp;Humidity;BMP_temperature;BMP_pressure;BME280_temperature;BME280_humidity;BME280_pressure;Samples;Min_cycle;Max_cycle;Signal;HPM_P1;HPM_P2
2021/04/19 00:01:11;;;;;;;34.75;31.85;;;9.10;76.80;;;;;;5093542;28;20211;-77
2021/04/19 00:03:37;;;;;;;34.90;32.30;;;9.10;77.10;;;;;;5093634;28;20195;-77
2021/04/19 00:06:04;;;;;;;34.60;32.00;;;9.00;77.20;;;;;;5092976;28;20284;-77
2021/04/19 00:08:30;;;;;;;36.25;33.42;;;9.00;77.30;;;;;;5093479;28;20199;-77
2021/04/19 00:10:57;;;;;;;35.50;32.80;;;9.00;77.40;;;;;;5093147;28;20215;-77
2021/04/19 00:13:25;;;;;;;35.30;32.70;;;8.90;78.70;;;;;;5093372;28;20213;-76
2021/04/19 00:15:52;;;;;;;34.03;31.52;;;8.90;79.40;;;;;;5092957;28;20272;-77
2021/04/19 00:18:19;;;;;;;34.67;31.85;;;8.90;79.40;;;;;;5092908;28;20199;-77
2021/04/19 00:20:45;;;;;;;36.38;33.45;;;8.90;78.90;;;;;;5093088;28;20214;-77
2021/04/19 00:23:12;;;;;;;34.40;31.65;;;8.90;78.50;;;;;;5093061;28;20191;-76
2021/04/19 00:25:38;;;;;;;34.38;31.58;;;8.80;78.30;;;;;;5092593;28;20244;-76
2021/04/19 00:28:05;;;;;;;34.90;32.13;;;8.80;78.50;;;;;;5093025;28;20199;-76
2021/04/19 00:30:33;;;;;;;36.42;33.58;;;8.70;78.90;;;;;;5092953;28;20837;-77
2021/04/19 00:32:59;;;;;;;33.70;31.10;;;8.70;82.60;;;;;;5093177;28;20202;-76
2021/04/19 00:35:25;;;;;;;36.47;33.55;;;8.70;83.30;;;;;;5092700;28;20301;-77
2021/04/19 00:37:52;;;;;;;33.67;31.17;;;8.70;85.40;;;;;;5092594;28;20653;-76
2021/04/19 00:40:20;;;;;;;35.67;33.15;;;8.70;83.60;;;;;;5092703;28;20673;-76
2021/04/19 00:42:48;;;;;;;34.25;31.55;;;8.80;81.10;;;;;;5092841;28;20198;-77
2021/04/19 00:45:16;;;;;;;32.65;30.25;;;8.80;79.50;;;;;;5092833;28;20195;-76
2021/04/19 00:47:45;;;;;;;34.00;31.38;;;8.70;79.00;;;;;;5092195;28;20207;-77
2021/04/19 00:50:14;;;;;;;34.55;32.00;;;8.60;79.60;;;;;;5092695;28;20215;-77
2021/04/19 00:52:41;;;;;;;33.63;31.13;;;8.50;80.00;;;;;;5092774;28;20278;-76
2021/04/19 00:55:09;;;;;;;34.55;31.95;;;8.40;79.90;;;;;;5092631;28;20674;-76
2021/04/19 00:57:36;;;;;;;33.42;30.92;;;8.50;79.90;;;;;;5092268;28;20282;-77
2021/04/19 01:00:05;;;;;;;34.08;31.58;;;8.60;79.80;;;;;;5092630;28;20607;-76
2021/04/19 01:02:32;;;;;;;34.58;32.08;;;8.60;79.70;;;;;;5092555;28;20235;-76
2021/04/19 01:04:59;;;;;;;36.50;33.75;;;8.50;80.50;;;;;;5091563;28;20229;-76
2021/04/19 01:07:26;;;;;;;37.05;34.35;;;8.40;80.10;;;;;;5092054;28;20278;-76
2021/04/19 01:09:52;;;;;;;38.50;35.20;;;8.40;80.20;;;;;;5092312;28;20700;-76
2021/04/19 01:12:18;;;;;;;35.03;32.50;;;8.40;80.20;;;;;;5092539;28;20542;-77
2021/04/19 01:14:45;;;;;;;36.90;34.00;;;8.40;80.10;;;;;;5092257;28;20206;-76
2021/04/19 01:17:11;;;;;;;35.53;32.83;;;8.40;84.60;;;;;;5091301;28;20219;-76
2021/04/19 01:19:38;;;;;;;35.78;32.95;;;8.50;84.40;;;;;;5092285;28;20655;-76
2021/04/19 01:22:05;;;;;;;38.42;35.38;;;8.50;84.90;;;;;;5092210;28;20534;-77
2021/04/19 01:24:31;;;;;;;34.17;31.58;;;8.50;85.20;;;;;;5091846;28;20691;-77
2021/04/19 01:26:58;;;;;;;36.63;33.83;;;8.50;83.90;;;;;;5091818;28;20294;-77
2021/04/19 01:29:24;;;;;;;36.17;33.38;;;8.40;82.30;;;;;;5092365;28;20289;-77
2021/04/19 01:31:50;;;;;;;35.10;32.47;;;8.30;81.90;;;;;;5092261;28;20303;-76
2021/04/19 01:34:17;;;;;;;35.05;32.42;;;8.20;81.50;;;;;;5092286;28;20546;-76
2021/04/19 01:36:46;;;;;;;35.00;32.42;;;8.30;82.60;;;;;;5091438;28;20211;-76
2021/04/19 01:39:16;;;;;;;37.17;34.05;;;8.30;83.10;;;;;;5092051;28;20623;-76
2021/04/19 01:41:44;;;;;;;37.10;33.92;;;8.30;86.00;;;;;;5092325;28;20225;-77
2021/04/19 01:44:10;;;;;;;35.60;33.00;;;8.30;84.80;;;;;;5092263;28;20195;-77
2021/04/19 01:46:37;;;;;;;34.53;32.03;;;8.30;82.70;;;;;;5091568;28;20196;-77
2021/04/19 01:49:12;;;;;;;35.10;32.33;;;8.30;82.40;;;;;;5092093;28;20221;-77
2021/04/19 01:51:38;;;;;;;34.83;32.35;;;8.30;81.40;;;;;;5092181;28;20352;-77
2021/04/19 01:54:05;;;;;;;35.67;32.85;;;8.30;81.40;;;;;;5091975;28;20260;-77
2021/04/19 01:56:32;;;;;;;34.53;31.90;;;8.30;82.90;;;;;;5091377;28;20223;-77
2021/04/19 01:58:59;;;;;;;34.85;32.00;;;8.40;82.60;;;;;;5091893;28;20199;-77
2021/04/19 02:01:26;;;;;;;34.92;32.20;;;8.50;81.80;;;;;;5091567;28;20643;-77
2021/04/19 02:04:08;;;;;;;36.55;33.65;;;8.50;82.90;;;;;;5091913;28;20282;-77
2021/04/19 02:06:38;;;;;;;35.88;32.95;;;8.50;85.60;;;;;;5091504;28;20249;-77
2021/04/19 02:09:10;;;;;;;34.90;32.20;;;8.40;83.50;;;;;;5091732;28;20294;-77
2021/04/19 02:11:47;;;;;;;36.53;33.47;;;8.50;82.40;;;;;;5091840;28;20409;-77
2021/04/19 02:14:25;;;;;;;35.30;32.60;;;8.30;80.90;;;;;;5091752;28;20340;-76
2021/04/19 02:16:58;;;;;;;36.58;33.67;;;8.30;81.10;;;;;;5093805;28;20227;-80
2021/04/19 02:19:39;;;;;;;36.38;33.42;;;8.30;81.30;;;;;;5095599;28;20207;-78
2021/04/19 02:22:10;;;;;;;34.83;32.22;;;8.30;81.50;;;;;;5095455;28;20222;-80
2021/04/19 02:24:42;;;;;;;34.88;32.28;;;8.30;85.10;;;;;;5095625;28;20657;-77
2021/04/19 02:27:14;;;;;;;33.75;31.08;;;8.40;84.80;;;;;;5094863;28;20564;-77
2021/04/19 02:29:43;;;;;;;33.35;30.77;;;8.40;85.70;;;;;;5095465;28;20192;-77
2021/04/19 02:32:14;;;;;;;34.70;31.80;;;8.30;83.00;;;;;;5095449;28;20712;-77
2021/04/19 02:34:42;;;;;;;33.97;31.30;;;8.40;82.40;;;;;;5095255;28;20274;-77
2021/04/19 02:37:11;;;;;;;34.85;31.95;;;8.40;81.30;;;;;;5094568;28;20234;-77
2021/04/19 02:39:40;;;;;;;34.05;31.65;;;8.40;80.90;;;;;;5095129;28;20286;-77
2021/04/19 02:42:09;;;;;;;35.78;32.90;;;8.40;81.30;;;;;;5095287;28;20279;-77
2021/04/19 02:44:37;;;;;;;35.05;32.05;;;8.40;81.00;;;;;;5095269;28;20207;-77
2021/04/19 02:47:05;;;;;;;34.22;31.73;;;8.50;81.30;;;;;;5094408;28;20238;-78
2021/04/19 02:49:34;;;;;;;35.05;32.40;;;8.40;86.10;;;;;;5094919;28;20195;-78
2021/04/19 02:52:03;;;;;;;36.22;33.45;;;8.40;83.30;;;;;;5095187;28;20285;-76
2021/04/19 02:54:31;;;;;;;35.40;32.90;;;8.40;81.70;;;;;;5094971;28;20245;-77
2021/04/19 02:56:58;;;;;;;33.25;30.70;;;8.40;81.80;;;;;;5094542;28;20211;-77
2021/04/19 02:59:29;;;;;;;34.97;32.38;;;8.50;81.20;;;;;;5094736;28;20737;-76
2021/04/19 03:01:59;;;;;;;34.30;31.75;;;8.50;83.10;;;;;;5094790;28;20618;-77
2021/04/19 03:04:29;;;;;;;37.80;34.58;;;8.50;84.80;;;;;;5094722;28;20282;-77
2021/04/19 03:06:58;;;;;;;35.17;32.58;;;8.40;85.50;;;;;;5094284;28;20202;-76
2021/04/19 03:09:26;;;;;;;34.30;31.60;;;8.30;84.70;;;;;;5094525;28;20284;-77
2021/04/19 03:11:55;;;;;;;35.53;32.70;;;8.40;83.60;;;;;;5094571;28;20283;-77
2021/04/19 03:14:28;;;;;;;37.92;35.17;;;8.40;82.40;;;;;;5094389;28;20207;-77
2021/04/19 03:17:01;;;;;;;36.25;33.38;;;8.40;81.70;;;;;;5094025;28;20211;-78
2021/04/19 03:19:29;;;;;;;37.30;34.30;;;8.40;81.10;;;;;;5094358;28;20227;-77
2021/04/19 03:21:58;;;;;;;34.88;31.95;;;8.40;81.30;;;;;;5094484;28;20716;-77
2021/04/19 03:24:26;;;;;;;37.70;34.60;;;8.40;83.40;;;;;;5094267;28;20195;-77
2021/04/19 03:26:52;;;;;;;36.60;33.90;;;8.40;82.90;;;;;;5093105;28;20294;-77
2021/04/19 03:29:21;;;;;;;36.53;33.70;;;8.40;86.00;;;;;;5094269;28;20553;-77
2021/04/19 03:31:52;;;;;;;34.35;31.73;;;8.40;85.90;;;;;;5094101;28;20215;-77
2021/04/19 03:34:21;;;;;;;36.15;33.40;;;8.40;84.50;;;;;;5094852;28;20195;-77
2021/04/19 03:36:51;;;;;;;38.70;35.50;;;8.50;83.40;;;;;;5094019;28;20234;-77
2021/04/19 03:39:19;;;;;;;36.50;33.85;;;8.50;82.00;;;;;;5094143;28;20197;-77
2021/04/19 03:41:48;;;;;;;37.88;34.88;;;8.40;82.00;;;;;;5093872;28;20241;-77
2021/04/19 03:44:21;;;;;;;37.85;34.45;;;8.40;83.50;;;;;;5093915;28;20257;-77
2021/04/19 03:46:50;;;;;;;37.35;34.25;;;8.40;84.90;;;;;;5093484;28;20203;-77
2021/04/19 03:49:23;;;;;;;39.88;36.88;;;8.60;84.10;;;;;;5093713;28;20457;-79
2021/04/19 03:51:53;;;;;;;34.65;32.05;;;8.60;83.20;;;;;;5093643;28;20230;-77
2021/04/19 03:54:20;;;;;;;37.17;33.97;;;8.70;82.40;;;;;;5093782;28;20332;-76
2021/04/19 03:56:47;;;;;;;37.72;34.70;;;8.60;82.30;;;;;;5093212;28;21035;-76
2021/04/19 03:59:17;;;;;;;37.58;34.67;;;8.60;81.40;;;;;;5093756;28;20613;-76
2021/04/19 04:01:45;;;;;;;41.05;38.13;;;8.60;81.10;;;;;;5093552;28;20211;-77
2021/04/19 04:04:15;;;;;;;40.67;37.58;;;8.60;81.10;;;;;;5093446;28;20199;-76
2021/04/19 04:06:43;;;;;;;42.08;38.63;;;8.50;82.70;;;;;;5093060;28;20237;-76
2021/04/19 04:09:10;;;;;;;39.60;36.28;;;8.50;85.10;;;;;;5093664;28;20201;-76
2021/04/19 04:11:37;;;;;;;42.90;39.28;;;8.50;84.60;;;;;;5093386;28;20251;-76
2021/04/19 04:14:03;;;;;;;40.22;36.60;;;8.50;85.20;;;;;;5093288;28;20755;-77
2021/04/19 04:16:30;;;;;;;45.63;41.97;;;8.60;83.30;;;;;;5092604;28;20215;-76
2021/04/19 04:18:57;;;;;;;41.88;38.13;;;8.60;82.40;;;;;;5092790;28;20247;-76
2021/04/19 04:21:26;;;;;;;42.08;38.28;;;8.50;82.10;;;;;;5093176;28;20211;-76
2021/04/19 04:23:53;;;;;;;40.40;37.33;;;8.60;81.60;;;;;;5093159;28;20255;-77
2021/04/19 04:26:20;;;;;;;39.40;36.10;;;8.60;82.20;;;;;;5092702;28;20274;-77
2021/04/19 04:28:47;;;;;;;43.17;39.22;;;8.60;83.20;;;;;;5093229;28;20337;-77
2021/04/19 04:31:13;;;;;;;40.38;37.05;;;8.60;82.70;;;;;;5092939;28;20639;-77
2021/04/19 04:33:40;;;;;;;42.38;38.83;;;8.60;82.40;;;;;;5093199;28;20278;-77
2021/04/19 04:36:07;;;;;;;40.95;37.55;;;8.60;81.90;;;;;;5092269;28;20302;-77
2021/04/19 04:38:34;;;;;;;40.53;37.20;;;8.50;81.90;;;;;;5093009;28;20282;-77
2021/04/19 04:41:01;;;;;;;43.67;40.17;;;8.50;81.80;;;;;;5092933;28;20235;-77
2021/04/19 04:43:31;;;;;;;43.55;40.15;;;8.50;82.10;;;;;;5092907;28;20732;-77
2021/04/19 04:46:04;;;;;;;42.40;39.00;;;8.60;83.90;;;;;;5092162;28;20191;-77
2021/04/19 04:48:37;;;;;;;44.67;40.22;;;8.60;87.00;;;;;;5092763;28;20207;-77
2021/04/19 04:51:08;;;;;;;41.22;37.72;;;8.60;85.20;;;;;;5092601;28;20318;-77
2021/04/19 04:53:41;;;;;;;44.05;40.47;;;8.60;85.90;;;;;;5092836;28;20597;-77
2021/04/19 04:56:10;;;;;;;39.70;36.35;;;8.60;84.40;;;;;;5091913;28;20613;-77
2021/04/19 04:58:39;;;;;;;38.95;35.75;;;8.80;83.20;;;;;;5092682;28;20296;-77
2021/04/19 05:01:08;;;;;;;40.28;36.88;;;8.80;82.10;;;;;;5092589;28;20652;-77
2021/04/19 05:03:36;;;;;;;42.38;38.80;;;8.80;81.90;;;;;;5092613;28;20282;-77
2021/04/19 05:06:04;;;;;;;42.28;38.47;;;8.80;81.20;;;;;;5091981;28;20286;-77
2021/04/19 05:08:30;;;;;;;41.20;37.38;;;8.80;82.40;;;;;;5092406;28;20283;-77
2021/04/19 05:10:59;;;;;;;43.97;40.25;;;8.90;83.50;;;;;;5092581;28;20229;-77
2021/04/19 05:13:26;;;;;;;43.25;39.80;;;8.90;82.80;;;;;;5092364;28;20194;-77
2021/04/19 05:15:53;;;;;;;42.13;38.42;;;8.90;83.40;;;;;;5091941;28;20215;-77
2021/04/19 05:18:20;;;;;;;45.17;41.30;;;8.90;82.90;;;;;;5091925;28;20234;-77
2021/04/19 05:20:48;;;;;;;46.38;42.47;;;8.90;82.80;;;;;;5092330;28;20257;-77
2021/04/19 05:23:15;;;;;;;42.22;38.65;;;8.90;83.00;;;;;;5092138;28;20203;-77
2021/04/19 05:25:43;;;;;;;43.83;40.25;;;8.80;83.50;;;;;;5092052;28;20207;-77
2021/04/19 05:28:11;;;;;;;44.20;40.38;;;8.70;83.90;;;;;;5092210;28;20247;-77
2021/04/19 05:30:38;;;;;;;43.85;40.25;;;8.70;83.90;;;;;;5092300;28;20558;-77
2021/04/19 05:33:06;;;;;;;45.35;41.53;;;8.80;83.60;;;;;;5092165;28;20282;-77
2021/04/19 05:35:34;;;;;;;44.60;40.67;;;8.80;86.30;;;;;;5091613;28;20195;-77
2021/04/19 05:38:01;;;;;;;43.00;39.45;;;8.80;87.10;;;;;;5092072;28;20286;-77
2021/04/19 05:40:30;;;;;;;44.47;40.50;;;8.70;87.60;;;;;;5092030;28;20221;-77
2021/04/19 05:42:57;;;;;;;46.55;42.47;;;8.80;86.60;;;;;;5092188;28;20221;-76
2021/04/19 05:45:25;;;;;;;45.30;41.33;;;8.70;85.70;;;;;;5091995;28;20195;-76
2021/04/19 05:47:53;;;;;;;44.28;40.28;;;8.70;85.80;;;;;;5091753;28;20290;-77
2021/04/19 05:50:23;;;;;;;44.90;41.22;;;8.70;85.90;;;;;;5092253;28;20246;-77
2021/04/19 05:52:52;;;;;;;41.60;38.17;;;8.60;86.50;;;;;;5095972;28;20199;-77
2021/04/19 05:55:21;;;;;;;43.25;39.47;;;8.60;85.90;;;;;;5096120;28;20238;-75
2021/04/19 05:57:53;;;;;;;43.90;40.03;;;8.70;85.50;;;;;;5095641;28;20250;-77
2021/04/19 06:00:23;;;;;;;44.58;40.67;;;8.70;85.00;;;;;;5095946;28;20223;-77
2021/04/19 06:03:00;;;;;;;44.63;40.58;;;8.70;84.80;;;;;;5095757;28;20616;-76
2021/04/19 06:05:30;;;;;;;46.00;42.33;;;8.70;84.60;;;;;;5095457;28;20231;-75
2021/04/19 06:08:06;;;;;;;43.50;40.08;;;8.70;84.90;;;;;;5095939;28;20278;-77
2021/04/19 06:10:39;;;;;;;44.22;40.17;;;8.70;85.10;;;;;;5095650;28;20222;-77
2021/04/19 06:13:08;;;;;;;45.40;41.42;;;8.70;85.10;;;;;;5095742;28;20195;-77
2021/04/19 06:15:36;;;;;;;49.72;45.72;;;8.70;85.50;;;;;;5095064;28;20665;-77
2021/04/19 06:18:03;;;;;;;45.92;42.22;;;8.80;85.30;;;;;;5095252;28;20339;-80
2021/04/19 06:20:30;;;;;;;47.28;43.28;;;8.70;85.30;;;;;;5095514;28;20298;-77
2021/04/19 06:22:57;;;;;;;43.40;39.67;;;8.70;85.80;;;;;;5095377;28;20290;-76
2021/04/19 06:25:25;;;;;;;47.30;43.63;;;8.70;86.40;;;;;;5095312;28;20534;-76
2021/04/19 06:27:59;;;;;;;44.20;40.55;;;8.50;87.20;;;;;;5095271;28;20199;-79
2021/04/19 06:30:29;;;;;;;44.22;40.33;;;8.50;87.90;;;;;;5095439;28;20775;-76
2021/04/19 06:32:56;;;;;;;126.25;48.00;;;8.50;88.10;;;;;;5095375;28;20541;-76
2021/04/19 06:35:23;;;;;;;143.80;49.40;;;8.60;90.80;;;;;;5095195;28;20237;-77
2021/04/19 06:37:50;;;;;;;44.15;40.15;;;8.60;91.00;;;;;;5094872;28;20226;-76
2021/04/19 06:40:17;;;;;;;44.15;40.30;;;8.60;90.60;;;;;;5095127;28;20692;-76
2021/04/19 06:42:44;;;;;;;44.22;40.45;;;8.60;89.80;;;;;;5094960;28;20203;-77
2021/04/19 06:45:14;;;;;;;42.72;39.22;;;8.60;89.80;;;;;;5095014;28;20221;-77
2021/04/19 06:47:42;;;;;;;43.75;40.40;;;8.80;89.20;;;;;;5094490;28;20291;-76
2021/04/19 06:50:11;;;;;;;43.15;39.45;;;8.90;88.60;;;;;;5095130;28;20298;-76
2021/04/19 06:52:46;;;;;;;42.90;39.20;;;9.00;88.20;;;;;;5094912;28;20203;-77
2021/04/19 06:55:13;;;;;;;42.75;39.05;;;9.00;88.00;;;;;;5094887;28;20218;-76
2021/04/19 06:57:43;;;;;;;45.85;41.63;;;9.00;88.00;;;;;;5094476;28;20237;-76
2021/04/19 07:00:12;;;;;;;42.53;38.63;;;9.00;87.80;;;;;;5095109;28;20640;-77
2021/04/19 07:02:46;;;;;;;44.05;40.42;;;9.10;87.90;;;;;;5093736;28;20255;-76
2021/04/19 07:05:16;;;;;;;45.90;41.63;;;9.10;87.60;;;;;;5094771;28;20209;-76
2021/04/19 07:07:49;;;;;;;88.40;43.60;;;9.00;87.30;;;;;;5094164;28;20759;-77
2021/04/19 07:10:17;;;;;;;43.03;39.03;;;9.00;87.70;;;;;;5094503;28;20303;-76
2021/04/19 07:12:45;;;;;;;45.63;41.35;;;9.00;87.80;;;;;;5094628;28;20195;-77
2021/04/19 07:15:15;;;;;;;44.05;39.92;;;9.00;87.50;;;;;;5094262;28;20204;-76
2021/04/19 07:17:42;;;;;;;41.40;37.85;;;9.10;87.20;;;;;;5093621;28;20225;-78
2021/04/19 07:20:11;;;;;;;41.22;37.70;;;9.10;86.40;;;;;;5094274;28;20303;-77
2021/04/19 07:22:39;;;;;;;42.42;38.83;;;9.00;86.20;;;;;;5094242;28;20242;-76
2021/04/19 07:25:08;;;;;;;43.85;40.13;;;9.10;87.20;;;;;;5094182;28;20286;-76
2021/04/19 07:27:38;;;;;;;40.97;37.60;;;9.10;87.10;;;;;;5093812;28;20652;-77
2021/04/19 07:30:07;;;;;;;41.67;38.15;;;9.10;87.20;;;;;;5094171;28;20215;-77
2021/04/19 07:32:34;;;;;;;41.67;38.33;;;9.20;87.10;;;;;;5094203;28;20191;-77
2021/04/19 07:35:01;;;;;;;41.33;38.10;;;9.30;86.60;;;;;;5094202;28;20294;-77
2021/04/19 07:37:28;;;;;;;39.50;36.50;;;9.20;85.90;;;;;;5093513;28;20258;-77
2021/04/19 07:39:56;;;;;;;39.97;36.17;;;9.20;85.70;;;;;;5094016;28;20229;-77
2021/04/19 07:42:23;;;;;;;39.00;35.50;;;9.20;85.50;;;;;;5094061;28;20302;-77
2021/04/19 07:44:51;;;;;;;50.85;39.08;;;9.30;85.10;;;;;;5094032;28;20556;-77
2021/04/19 07:47:30;;;;;;;41.53;37.75;;;9.40;86.00;;;;;;5093330;28;20286;-76
2021/04/19 07:50:19;;;;;;;39.50;36.20;;;9.30;86.40;;;;;;5093928;28;20223;-77
2021/04/19 07:52:57;;;;;;;41.83;38.08;;;9.40;85.40;;;;;;5093868;28;20195;-77
2021/04/19 07:55:26;;;;;;;59.28;41.22;;;9.40;85.30;;;;;;5093346;28;20195;-78
2021/04/19 07:57:54;;;;;;;42.67;38.10;;;9.40;86.40;;;;;;5093695;28;20223;-77
2021/04/19 08:00:26;;;;;;;39.97;36.25;;;9.30;87.90;;;;;;5093575;28;20771;-76
2021/04/19 08:03:12;;;;;;;42.63;39.20;;;9.30;88.10;;;;;;5093563;28;20242;-76
2021/04/19 08:05:40;;;;;;;41.70;37.75;;;9.40;87.00;;;;;;5093337;28;20210;-76
2021/04/19 08:08:08;;;;;;;40.55;36.75;;;9.40;86.20;;;;;;5093445;28;20198;-77
2021/04/19 08:10:35;;;;;;;40.80;37.25;;;9.50;85.90;;;;;;5093612;28;20581;-77
2021/04/19 08:13:09;;;;;;;43.53;39.80;;;9.60;85.70;;;;;;5093048;28;20994;-77
2021/04/19 08:15:36;;;;;;;42.22;38.13;;;9.80;85.00;;;;;;5092976;28;20191;-77
2021/04/19 08:18:06;;;;;;;42.08;38.40;;;9.90;85.20;;;;;;5092848;28;20310;-77
2021/04/19 08:20:33;;;;;;;39.95;36.75;;;10.10;85.00;;;;;;5093321;28;20215;-77
2021/04/19 08:23:08;;;;;;;42.75;39.40;;;10.10;84.60;;;;;;5093015;28;20207;-77
2021/04/19 08:25:37;;;;;;;39.78;36.55;;;10.10;84.00;;;;;;5092568;28;20199;-77
2021/04/19 08:28:07;;;;;;;39.75;36.35;;;10.20;83.60;;;;;;5093368;28;20202;-77
2021/04/19 08:30:34;;;;;;;40.20;36.60;;;10.40;83.10;;;;;;5092964;28;20215;-77
2021/04/19 08:33:01;;;;;;;41.85;38.35;;;10.40;84.10;;;;;;5093034;28;20990;-77
2021/04/19 08:35:29;;;;;;;40.30;37.10;;;10.40;84.00;;;;;;5092357;28;20661;-81
2021/04/19 08:37:57;;;;;;;41.83;38.35;;;10.20;83.20;;;;;;5093009;28;21085;-77
2021/04/19 08:40:26;;;;;;;40.92;37.25;;;10.30;83.10;;;;;;5092822;28;20215;-77
2021/04/19 08:42:53;;;;;;;42.78;39.25;;;10.30;81.70;;;;;;5093035;28;20195;-77
2021/04/19 08:45:21;;;;;;;43.50;39.50;;;10.40;81.10;;;;;;5092693;28;20199;-77
2021/04/19 08:47:48;;;;;;;40.78;37.42;;;10.20;81.20;;;;;;5092314;28;20199;-77
2021/04/19 08:50:18;;;;;;;40.63;37.47;;;9.90;82.10;;;;;;5092682;28;20227;-77
2021/04/19 08:52:45;;;;;;;42.30;38.78;;;9.80;83.10;;;;;;5092840;28;20203;-77
2021/04/19 08:55:14;;;;;;;41.95;38.58;;;9.70;83.70;;;;;;5092861;28;20203;-77
2021/04/19 08:57:44;;;;;;;39.22;36.17;;;9.70;84.00;;;;;;5091919;28;20313;-77
2021/04/19 09:00:15;;;;;;;40.05;36.85;;;9.70;84.30;;;;;;5092500;28;20219;-77
2021/04/19 09:02:43;;;;;;;44.22;39.80;;;9.70;84.60;;;;;;5092659;28;20289;-77
2021/04/19 09:05:11;;;;;;;42.97;38.80;;;9.70;87.90;;;;;;5092542;28;20201;-77
2021/04/19 09:07:40;;;;;;;40.28;36.92;;;9.70;87.70;;;;;;5091988;28;20191;-77
2021/04/19 09:10:10;;;;;;;40.22;37.03;;;9.60;86.40;;;;;;5092447;28;20306;-77
2021/04/19 09:12:37;;;;;;;41.15;37.17;;;9.80;85.60;;;;;;5092455;28;20300;-77
2021/04/19 09:15:25;;;;;;;42.55;38.58;;;9.80;84.50;;;;;;5092260;28;20221;-76
2021/04/19 09:18:07;;;;;;;42.67;39.15;;;9.80;85.00;;;;;;5091699;28;20268;-77
2021/04/19 09:20:45;;;;;;;41.17;37.92;;;9.80;85.70;;;;;;5092227;28;20288;-77
2021/04/19 09:23:21;;;;;;;39.42;36.28;;;9.80;86.00;;;;;;5092069;28;20201;-77
2021/04/19 09:25:48;;;;;;;44.08;40.88;;;9.90;85.80;;;;;;5090971;28;20289;-77
2021/04/19 09:28:30;;;;;;;40.15;37.00;;;10.00;85.20;;;;;;5092322;28;20198;-77
2021/04/19 09:30:56;;;;;;;102.53;47.83;;;9.90;85.40;;;;;;5092224;28;20634;-76
2021/04/19 09:33:24;;;;;;;47.47;42.72;;;9.90;84.80;;;;;;5092238;28;20216;-76
2021/04/19 09:35:55;;;;;;;39.95;36.45;;;9.90;85.40;;;;;;5091692;28;20194;-77
2021/04/19 09:38:51;;;;;;;41.28;37.17;;;10.10;84.60;;;;;;5092225;28;20209;-77
2021/04/19 09:41:21;;;;;;;39.72;36.42;;;10.10;87.40;;;;;;5092251;28;20302;-76
2021/04/19 09:43:52;;;;;;;41.78;38.28;;;10.20;85.10;;;;;;5092179;28;20235;-77
2021/04/19 09:46:27;;;;;;;47.97;38.70;;;10.20;84.50;;;;;;5091512;28;20195;-77
2021/04/19 09:49:03;;;;;;;45.27;41.37;;;10.30;83.70;;;;;;5092126;28;20532;-77
2021/04/19 09:51:37;;;;;;;42.30;38.43;;;10.30;84.00;;;;;;5092091;28;21037;-77
2021/04/19 09:54:09;;;;;;;41.72;38.33;;;10.40;86.00;;;;;;5091974;28;20551;-77
2021/04/19 09:56:38;;;;;;;40.87;37.40;;;10.50;85.20;;;;;;5091430;28;20219;-80
2021/04/19 09:59:06;;;;;;;42.23;38.60;;;10.60;86.00;;;;;;5091994;28;20540;-76
2021/04/19 10:01:34;;;;;;;42.65;38.75;;;10.80;84.00;;;;;;5091850;28;20469;-77
2021/04/19 10:04:02;;;;;;;40.87;37.57;;;10.80;83.20;;;;;;5091942;28;20538;-76
2021/04/19 10:06:30;;;;;;;41.60;38.40;;;10.80;83.20;;;;;;5091235;28;20453;-78
2021/04/19 10:09:03;;;;;;;42.47;38.27;;;11.10;81.40;;;;;;5091903;28;20484;-77
2021/04/19 10:11:34;;;;;;;40.47;36.80;;;11.20;82.60;;;;;;5091884;28;20966;-77
2021/04/19 10:14:08;;;;;;;40.50;37.10;;;11.20;83.10;;;;;;5091993;28;20507;-77
2021/04/19 10:16:42;;;;;;;42.50;39.10;;;11.30;82.80;;;;;;5091302;28;20579;-77
2021/04/19 10:19:10;;;;;;;44.97;41.20;;;11.30;80.80;;;;;;5091085;28;20510;-76
2021/04/19 10:21:37;;;;;;;42.20;38.70;;;11.30;80.50;;;;;;5092051;28;20556;-76
2021/04/19 10:24:04;;;;;;;42.70;39.17;;;11.50;80.40;;;;;;5091791;28;20479;-76
2021/04/19 10:26:32;;;;;;;44.50;40.33;;;11.60;80.10;;;;;;5091376;28;20938;-77
2021/04/19 10:28:58;;;;;;;43.53;39.83;;;11.70;80.70;;;;;;5091938;28;20886;-76
2021/04/19 10:31:25;;;;;;;45.30;41.47;;;11.80;81.60;;;;;;5091909;28;20509;-76
2021/04/19 10:33:53;;;;;;;42.70;39.20;;;11.80;81.30;;;;;;5091688;28;20860;-77
2021/04/19 10:36:23;;;;;;;43.93;40.43;;;11.70;81.10;;;;;;5091480;28;20445;-77
2021/04/19 10:38:51;;;;;;;42.20;38.90;;;11.90;80.80;;;;;;5095450;28;20456;-77
2021/04/19 10:41:29;;;;;;;88.17;45.00;;;11.90;81.10;;;;;;5095432;28;20507;-76
2021/04/19 10:43:56;;;;;;;42.60;39.23;;;12.00;83.50;;;;;;5095368;28;20506;-76
2021/04/19 10:46:24;;;;;;;44.30;40.53;;;12.00;81.90;;;;;;5094432;28;20449;-77
2021/04/19 10:48:54;;;;;;;44.33;39.70;;;12.00;80.70;;;;;;5095089;28;20449;-76
2021/04/19 10:51:24;;;;;;;44.30;40.57;;;11.90;79.80;;;;;;5095177;28;20826;-76
2021/04/19 10:53:51;;;;;;;43.50;40.00;;;11.90;79.70;;;;;;5095177;28;20453;-76
2021/04/19 10:56:22;;;;;;;44.47;40.23;;;11.80;81.10;;;;;;5094931;28;20532;-76
2021/04/19 10:58:50;;;;;;;43.13;39.80;;;11.80;80.80;;;;;;5095301;28;20573;-77
2021/04/19 11:01:25;;;;;;;45.23;41.30;;;11.90;81.00;;;;;;5095219;28;20469;-77
2021/04/19 11:03:52;;;;;;;42.83;39.20;;;11.90;79.70;;;;;;5095067;28;20810;-76
2021/04/19 11:06:19;;;;;;;42.37;39.03;;;11.80;80.00;;;;;;5094439;28;20453;-77
2021/04/19 11:08:56;;;;;;;43.77;40.20;;;11.90;79.10;;;;;;5094688;28;20445;-77
2021/04/19 11:11:32;;;;;;;44.97;41.47;;;11.90;78.70;;;;;;5094924;28;20492;-77
2021/04/19 11:14:14;;;;;;;42.50;39.00;;;12.00;79.30;;;;;;5095042;28;20536;-77
2021/04/19 11:17:05;;;;;;;42.40;39.10;;;12.10;81.00;;;;;;5094262;28;20473;-77
2021/04/19 11:19:42;;;;;;;43.80;40.10;;;12.20;78.50;;;;;;5074428;28;20462;-77
2021/04/19 11:22:24;;;;;;;40.03;37.00;;;12.20;78.30;;;;;;5094746;28;20461;-77
2021/04/19 11:24:51;;;;;;;43.47;40.07;;;12.30;77.80;;;;;;5094501;28;21021;-77
2021/04/19 11:27:25;;;;;;;43.67;40.07;;;12.30;77.40;;;;;;5094714;28;20872;-77
2021/04/19 11:29:52;;;;;;;44.97;41.30;;;12.30;76.10;;;;;;5101949;28;20469;-76
2021/04/19 11:32:31;;;;;;;45.90;41.97;;;12.40;76.10;;;;;;5103176;28;20947;-77
2021/04/19 11:34:59;;;;;;;43.27;39.97;;;12.30;77.30;;;;;;5102329;28;20448;-77
2021/04/19 11:37:33;;;;;;;43.37;39.97;;;12.30;79.00;;;;;;5100229;28;20476;-77
2021/04/19 11:40:01;;;;;;;41.03;37.67;;;12.20;76.70;;;;;;5094769;28;20499;-77
2021/04/19 11:42:34;;;;;;;42.23;38.87;;;12.30;75.90;;;;;;5094490;28;20453;-76
2021/04/19 11:45:01;;;;;;;44.73;40.80;;;12.40;75.30;;;;;;5094365;28;20456;-76
2021/04/19 11:47:28;;;;;;;43.47;39.90;;;12.30;76.10;;;;;;5093621;28;20461;-77
2021/04/19 11:49:57;;;;;;;39.60;36.50;;;12.40;76.00;;;;;;5093412;28;20531;-76
2021/04/19 11:52:25;;;;;;;40.30;37.17;;;12.50;75.30;;;;;;5094189;28;20457;-76
2021/04/19 11:54:52;;;;;;;40.57;37.27;;;12.60;74.50;;;;;;5093797;28;20461;-76
2021/04/19 11:57:19;;;;;;;40.27;37.20;;;12.60;74.90;;;;;;5093328;28;20911;-76
2021/04/19 11:59:46;;;;;;;42.13;38.53;;;12.40;75.00;;;;;;5094056;28;20537;-76
2021/04/19 12:02:13;;;;;;;42.40;39.03;;;12.60;73.90;;;;;;5093862;28;20518;-76
2021/04/19 12:04:39;;;;;;;39.57;36.57;;;12.60;74.80;;;;;;5093841;28;20496;-76
2021/04/19 12:07:06;;;;;;;40.53;37.53;;;12.80;74.40;;;;;;5093081;28;20476;-76
2021/04/19 12:09:32;;;;;;;45.47;42.33;;;13.00;73.40;;;;;;5093805;28;20560;-77
2021/04/19 12:11:58;;;;;;;40.07;36.90;;;13.00;76.60;;;;;;5094081;28;20534;-77
2021/04/19 12:14:26;;;;;;;39.37;36.13;;;13.00;74.10;;;;;;5093764;28;20502;-77
2021/04/19 12:16:54;;;;;;;38.50;35.60;;;13.20;72.30;;;;;;5092894;28;20477;-77
2021/04/19 12:19:21;;;;;;;39.87;36.93;;;13.30;70.70;;;;;;5093086;28;20523;-76
2021/04/19 12:21:47;;;;;;;38.40;35.40;;;13.30;70.70;;;;;;5093376;28;20556;-76
2021/04/19 12:24:13;;;;;;;38.60;35.10;;;13.30;70.40;;;;;;5093289;28;20480;-76
2021/04/19 12:26:40;;;;;;;40.77;37.57;;;13.20;71.10;;;;;;5092793;28;20481;-76
2021/04/19 12:29:08;;;;;;;35.80;33.40;;;13.30;70.60;;;;;;5093435;28;20887;-77
2021/04/19 12:31:35;;;;;;;37.97;35.00;;;13.30;69.50;;;;;;5093245;28;20477;-77
2021/04/19 12:34:02;;;;;;;37.53;34.67;;;13.20;69.20;;;;;;5093497;28;20453;-76
2021/04/19 12:36:31;;;;;;;38.27;35.37;;;13.20;69.10;;;;;;5092394;28;20459;-77
2021/04/19 12:38:57;;;;;;;36.93;34.37;;;12.90;69.50;;;;;;5093111;28;20453;-77
2021/04/19 12:41:24;;;;;;;38.87;35.80;;;12.80;71.00;;;;;;5092804;28;20504;-77
2021/04/19 12:43:50;;;;;;;38.97;36.27;;;12.90;71.20;;;;;;5092997;28;20449;-77